sensor_id;sensor_type;location;lat;lon;timestamp;temperature;humidity
75321;DHT22;68337;52.196;5.660;2023-09-07T00:02:03;17.80;99.90
75321;DHT22;68337;52.196;5.660;2023-09-07T00:04:29;17.60;99.90
75321;DHT22;68337;52.196;5.660;2023-09-07T00:06:56;17.60;99.90
75321;DHT22;68337;52.196;5.660;2023-09-07T00:09:22;17.60;99.90
75321;DHT22;68337;52.196;5.660;2023-09-07T00:11:49;17.60;99.90
75321;DHT22;68337;52.196;5.660;2023-09-07T00:14:15;17.50;99.90
75321;DHT22;68337;52.196;5.660;2023-09-07T00:16:40;17.50;99.90
75321;DHT22;68337;52.196;5.660;2023-09-07T00:19:06;17.40;99.90
75321;DHT22;68337;52.196;5.660;2023-09-07T00:21:32;17.40;99.90
75321;DHT22;68337;52.196;5.660;2023-09-07T00:24:01;17.30;99.90
75321;DHT22;68337;52.196;5.660;2023-09-07T00:26:31;17.30;99.90
75321;DHT22;68337;52.196;5.660;2023-09-07T00:28:57;17.30;99.90
75321;DHT22;68337;52.196;5.660;2023-09-07T00:31:25;17.30;99.90
75321;DHT22;68337;52.196;5.660;2023-09-07T00:33:53;17.20;99.90
75321;DHT22;68337;52.196;5.660;2023-09-07T00:36:19;17.20;99.90
75321;DHT22;68337;52.196;5.660;2023-09-07T00:38:45;17.20;99.90
75321;DHT22;68337;52.196;5.660;2023-09-07T00:41:14;17.20;99.90
75321;DHT22;68337;52.196;5.660;2023-09-07T00:43:42;17.20;99.90
75321;DHT22;68337;52.196;5.660;2023-09-07T00:46:08;17.20;99.90
75321;DHT22;68337;52.196;5.660;2023-09-07T00:48:38;17.10;99.90
75321;DHT22;68337;52.196;5.660;2023-09-07T00:51:06;17.10;99.90
75321;DHT22;68337;52.196;5.660;2023-09-07T00:53:33;17.10;99.90
75321;DHT22;68337;52.196;5.660;2023-09-07T00:56:02;17.00;99.90
75321;DHT22;68337;52.196;5.660;2023-09-07T00:58:32;17.00;99.90
75321;DHT22;68337;52.196;5.660;2023-09-07T01:00:59;17.00;99.90
75321;DHT22;68337;52.196;5.660;2023-09-07T01:03:32;16.90;99.90
75321;DHT22;68337;52.196;5.660;2023-09-07T01:06:03;16.90;99.90
75321;DHT22;68337;52.196;5.660;2023-09-07T01:08:35;16.90;99.90
75321;DHT22;68337;52.196;5.660;2023-09-07T01:11:16;16.80;99.90
75321;DHT22;68337;52.196;5.660;2023-09-07T01:13:42;16.90;99.90
75321;DHT22;68337;52.196;5.660;2023-09-07T01:16:12;16.80;99.90
75321;DHT22;68337;52.196;5.660;2023-09-07T01:18:41;16.80;99.90
75321;DHT22;68337;52.196;5.660;2023-09-07T01:21:11;16.80;99.90
75321;DHT22;68337;52.196;5.660;2023-09-07T01:23:43;16.70;99.90
75321;DHT22;68337;52.196;5.660;2023-09-07T01:26:09;16.70;99.90
75321;DHT22;68337;52.196;5.660;2023-09-07T01:28:39;16.70;99.90
75321;DHT22;68337;52.196;5.660;2023-09-07T01:31:05;16.60;99.90
75321;DHT22;68337;52.196;5.660;2023-09-07T01:33:35;16.60;99.90
75321;DHT22;68337;52.196;5.660;2023-09-07T01:36:01;16.60;99.90
75321;DHT22;68337;52.196;5.660;2023-09-07T01:38:27;16.60;99.90
75321;DHT22;68337;52.196;5.660;2023-09-07T01:40:52;16.60;99.90
75321;DHT22;68337;52.196;5.660;2023-09-07T01:43:20;16.60;99.90
75321;DHT22;68337;52.196;5.660;2023-09-07T01:45:45;16.60;99.90
75321;DHT22;68337;52.196;5.660;2023-09-07T01:48:14;16.60;99.90
75321;DHT22;68337;52.196;5.660;2023-09-07T01:50:40;16.50;99.90
75321;DHT22;68337;52.196;5.660;2023-09-07T01:53:06;16.50;99.90
75321;DHT22;68337;52.196;5.660;2023-09-07T01:55:32;16.50;99.90
75321;DHT22;68337;52.196;5.660;2023-09-07T01:57:58;16.40;99.90
75321;DHT22;68337;52.196;5.660;2023-09-07T02:00:24;16.40;99.90
75321;DHT22;68337;52.196;5.660;2023-09-07T02:02:49;16.40;99.90
75321;DHT22;68337;52.196;5.660;2023-09-07T02:05:15;16.40;99.90
75321;DHT22;68337;52.196;5.660;2023-09-07T02:07:42;16.40;99.90
75321;DHT22;68337;52.196;5.660;2023-09-07T02:10:09;16.30;99.90
75321;DHT22;68337;52.196;5.660;2023-09-07T02:12:35;16.40;99.90
75321;DHT22;68337;52.196;5.660;2023-09-07T02:15:02;16.40;99.90
75321;DHT22;68337;52.196;5.660;2023-09-07T02:17:29;16.30;99.90
75321;DHT22;68337;52.196;5.660;2023-09-07T02:19:55;16.30;99.90
75321;DHT22;68337;52.196;5.660;2023-09-07T02:22:21;16.40;99.90
75321;DHT22;68337;52.196;5.660;2023-09-07T02:24:47;16.40;99.90
75321;DHT22;68337;52.196;5.660;2023-09-07T02:27:12;16.30;99.90
75321;DHT22;68337;52.196;5.660;2023-09-07T02:29:38;16.30;99.90
75321;DHT22;68337;52.196;5.660;2023-09-07T02:32:04;16.40;99.90
75321;DHT22;68337;52.196;5.660;2023-09-07T02:34:30;16.40;99.90
75321;DHT22;68337;52.196;5.660;2023-09-07T02:36:56;16.30;99.90
75321;DHT22;68337;52.196;5.660;2023-09-07T02:39:23;16.30;99.90
75321;DHT22;68337;52.196;5.660;2023-09-07T02:41:52;16.20;99.90
75321;DHT22;68337;52.196;5.660;2023-09-07T02:44:18;16.20;99.90
75321;DHT22;68337;52.196;5.660;2023-09-07T02:46:44;16.20;99.90
75321;DHT22;68337;52.196;5.660;2023-09-07T02:49:09;16.20;99.90
75321;DHT22;68337;52.196;5.660;2023-09-07T02:51:35;16.10;99.90
75321;DHT22;68337;52.196;5.660;2023-09-07T02:54:02;16.10;99.90
75321;DHT22;68337;52.196;5.660;2023-09-07T02:56:31;16.10;99.90
75321;DHT22;68337;52.196;5.660;2023-09-07T02:58:57;16.10;99.90
75321;DHT22;68337;52.196;5.660;2023-09-07T03:01:22;16.10;99.90
75321;DHT22;68337;52.196;5.660;2023-09-07T03:03:48;16.00;99.90
75321;DHT22;68337;52.196;5.660;2023-09-07T03:06:15;16.00;99.90
75321;DHT22;68337;52.196;5.660;2023-09-07T03:08:43;15.90;99.90
75321;DHT22;68337;52.196;5.660;2023-09-07T03:11:09;16.00;99.90
75321;DHT22;68337;52.196;5.660;2023-09-07T03:13:35;15.90;99.90
75321;DHT22;68337;52.196;5.660;2023-09-07T03:16:02;15.90;99.90
75321;DHT22;68337;52.196;5.660;2023-09-07T03:18:31;15.90;99.90
75321;DHT22;68337;52.196;5.660;2023-09-07T03:20:59;15.90;99.90
75321;DHT22;68337;52.196;5.660;2023-09-07T03:23:27;15.80;99.90
75321;DHT22;68337;52.196;5.660;2023-09-07T03:25:55;15.80;99.90
75321;DHT22;68337;52.196;5.660;2023-09-07T03:28:21;15.80;99.90
75321;DHT22;68337;52.196;5.660;2023-09-07T03:30:47;15.80;99.90
75321;DHT22;68337;52.196;5.660;2023-09-07T03:33:13;15.80;99.90
75321;DHT22;68337;52.196;5.660;2023-09-07T03:35:42;15.80;99.90
75321;DHT22;68337;52.196;5.660;2023-09-07T03:38:11;15.70;99.90
75321;DHT22;68337;52.196;5.660;2023-09-07T03:40:37;15.70;99.90
75321;DHT22;68337;52.196;5.660;2023-09-07T03:43:02;15.60;99.90
75321;DHT22;68337;52.196;5.660;2023-09-07T03:45:29;15.60;99.90
75321;DHT22;68337;52.196;5.660;2023-09-07T03:47:56;15.60;99.90
75321;DHT22;68337;52.196;5.660;2023-09-07T03:50:22;15.60;99.90
75321;DHT22;68337;52.196;5.660;2023-09-07T03:52:47;15.60;99.90
75321;DHT22;68337;52.196;5.660;2023-09-07T03:55:14;15.50;99.90
75321;DHT22;68337;52.196;5.660;2023-09-07T03:57:39;15.50;99.90
75321;DHT22;68337;52.196;5.660;2023-09-07T04:00:06;15.50;99.90
75321;DHT22;68337;52.196;5.660;2023-09-07T04:02:34;15.40;99.90
75321;DHT22;68337;52.196;5.660;2023-09-07T04:05:00;15.40;99.90
75321;DHT22;68337;52.196;5.660;2023-09-07T04:07:30;15.40;99.90
75321;DHT22;68337;52.196;5.660;2023-09-07T04:09:56;15.40;99.90
75321;DHT22;68337;52.196;5.660;2023-09-07T04:12:22;15.40;99.90
75321;DHT22;68337;52.196;5.660;2023-09-07T04:14:48;15.40;99.90
75321;DHT22;68337;52.196;5.660;2023-09-07T04:17:13;15.40;99.90
75321;DHT22;68337;52.196;5.660;2023-09-07T04:19:42;15.30;99.90
75321;DHT22;68337;52.196;5.660;2023-09-07T04:22:10;15.30;99.90
75321;DHT22;68337;52.196;5.660;2023-09-07T04:24:36;15.30;99.90
75321;DHT22;68337;52.196;5.660;2023-09-07T04:27:02;15.30;99.90
75321;DHT22;68337;52.196;5.660;2023-09-07T04:29:28;15.20;99.90
75321;DHT22;68337;52.196;5.660;2023-09-07T04:31:54;15.20;99.90
75321;DHT22;68337;52.196;5.660;2023-09-07T04:34:21;15.20;99.90
75321;DHT22;68337;52.196;5.660;2023-09-07T04:36:47;15.20;99.90
75321;DHT22;68337;52.196;5.660;2023-09-07T04:39:13;15.10;99.90
75321;DHT22;68337;52.196;5.660;2023-09-07T04:41:42;15.10;99.90
75321;DHT22;68337;52.196;5.660;2023-09-07T04:44:08;15.10;99.90
75321;DHT22;68337;52.196;5.660;2023-09-07T04:46:33;15.10;99.90
75321;DHT22;68337;52.196;5.660;2023-09-07T04:48:59;15.10;99.90
75321;DHT22;68337;52.196;5.660;2023-09-07T04:51:25;15.10;99.90
75321;DHT22;68337;52.196;5.660;2023-09-07T04:53:51;15.00;99.90
75321;DHT22;68337;52.196;5.660;2023-09-07T04:56:17;15.10;99.90
75321;DHT22;68337;52.196;5.660;2023-09-07T04:58:43;15.00;99.90
75321;DHT22;68337;52.196;5.660;2023-09-07T05:01:12;15.00;99.90
75321;DHT22;68337;52.196;5.660;2023-09-07T05:03:38;15.00;99.90
75321;DHT22;68337;52.196;5.660;2023-09-07T05:06:07;15.00;99.90
75321;DHT22;68337;52.196;5.660;2023-09-07T05:08:33;15.00;99.90
75321;DHT22;68337;52.196;5.660;2023-09-07T05:11:01;15.10;99.90
75321;DHT22;68337;52.196;5.660;2023-09-07T05:13:28;15.10;99.90
75321;DHT22;68337;52.196;5.660;2023-09-07T05:15:55;15.10;99.90
75321;DHT22;68337;52.196;5.660;2023-09-07T05:18:22;15.20;99.90
75321;DHT22;68337;52.196;5.660;2023-09-07T05:20:50;15.20;99.90
75321;DHT22;68337;52.196;5.660;2023-09-07T05:23:21;15.20;99.90
75321;DHT22;68337;52.196;5.660;2023-09-07T05:25:50;15.30;99.90
75321;DHT22;68337;52.196;5.660;2023-09-07T05:28:18;15.30;99.90
75321;DHT22;68337;52.196;5.660;2023-09-07T05:30:44;15.40;99.90
75321;DHT22;68337;52.196;5.660;2023-09-07T05:33:12;15.30;99.90
75321;DHT22;68337;52.196;5.660;2023-09-07T05:35:41;15.40;99.90
75321;DHT22;68337;52.196;5.660;2023-09-07T05:38:08;15.40;99.90
75321;DHT22;68337;52.196;5.660;2023-09-07T05:40:43;15.40;99.90
75321;DHT22;68337;52.196;5.660;2023-09-07T05:43:12;15.50;99.90
75321;DHT22;68337;52.196;5.660;2023-09-07T05:45:39;15.50;99.90
75321;DHT22;68337;52.196;5.660;2023-09-07T05:48:06;15.50;99.90
75321;DHT22;68337;52.196;5.660;2023-09-07T05:50:36;15.50;99.90
75321;DHT22;68337;52.196;5.660;2023-09-07T05:53:02;15.50;99.90
75321;DHT22;68337;52.196;5.660;2023-09-07T05:55:29;15.50;99.90
75321;DHT22;68337;52.196;5.660;2023-09-07T05:57:55;15.50;99.90
75321;DHT22;68337;52.196;5.660;2023-09-07T06:00:22;15.50;99.90
75321;DHT22;68337;52.196;5.660;2023-09-07T06:02:49;15.60;99.90
75321;DHT22;68337;52.196;5.660;2023-09-07T06:05:15;15.60;99.90
75321;DHT22;68337;52.196;5.660;2023-09-07T06:07:41;15.60;99.90
75321;DHT22;68337;52.196;5.660;2023-09-07T06:10:07;15.70;99.90
75321;DHT22;68337;52.196;5.660;2023-09-07T06:12:33;15.80;99.90
75321;DHT22;68337;52.196;5.660;2023-09-07T06:15:00;15.80;99.90
75321;DHT22;68337;52.196;5.660;2023-09-07T06:17:27;15.90;99.90
75321;DHT22;68337;52.196;5.660;2023-09-07T06:19:54;16.00;99.90
75321;DHT22;68337;52.196;5.660;2023-09-07T06:22:20;16.10;99.90
75321;DHT22;68337;52.196;5.660;2023-09-07T06:24:46;16.30;99.90
75321;DHT22;68337;52.196;5.660;2023-09-07T06:27:12;16.50;99.90
75321;DHT22;68337;52.196;5.660;2023-09-07T06:29:38;16.70;99.90
75321;DHT22;68337;52.196;5.660;2023-09-07T06:32:04;17.00;99.90
75321;DHT22;68337;52.196;5.660;2023-09-07T06:34:29;17.30;99.90
75321;DHT22;68337;52.196;5.660;2023-09-07T06:36:55;17.50;99.90
75321;DHT22;68337;52.196;5.660;2023-09-07T06:39:21;17.70;99.90
75321;DHT22;68337;52.196;5.660;2023-09-07T06:41:47;17.90;99.90
75321;DHT22;68337;52.196;5.660;2023-09-07T06:44:13;18.20;99.90
75321;DHT22;68337;52.196;5.660;2023-09-07T06:46:39;18.40;99.90
75321;DHT22;68337;52.196;5.660;2023-09-07T06:49:05;18.50;99.90
75321;DHT22;68337;52.196;5.660;2023-09-07T06:51:31;18.70;99.90
75321;DHT22;68337;52.196;5.660;2023-09-07T06:53:57;19.00;99.90
75321;DHT22;68337;52.196;5.660;2023-09-07T06:56:23;19.20;99.90
75321;DHT22;68337;52.196;5.660;2023-09-07T06:58:49;19.40;99.90
75321;DHT22;68337;52.196;5.660;2023-09-07T07:01:15;19.70;99.90
75321;DHT22;68337;52.196;5.660;2023-09-07T07:03:41;19.90;99.90
75321;DHT22;68337;52.196;5.660;2023-09-07T07:06:07;20.10;99.90
75321;DHT22;68337;52.196;5.660;2023-09-07T07:08:33;20.30;99.90
75321;DHT22;68337;52.196;5.660;2023-09-07T07:10:59;20.50;99.90
75321;DHT22;68337;52.196;5.660;2023-09-07T07:13:25;20.70;99.90
75321;DHT22;68337;52.196;5.660;2023-09-07T07:15:51;20.90;99.90
75321;DHT22;68337;52.196;5.660;2023-09-07T07:18:17;21.00;99.90
75321;DHT22;68337;52.196;5.660;2023-09-07T07:20:43;21.20;99.90
75321;DHT22;68337;52.196;5.660;2023-09-07T07:23:10;21.50;99.90
75321;DHT22;68337;52.196;5.660;2023-09-07T07:25:42;21.70;99.90
75321;DHT22;68337;52.196;5.660;2023-09-07T07:28:08;21.80;99.90
75321;DHT22;68337;52.196;5.660;2023-09-07T07:30:37;22.20;99.90
75321;DHT22;68337;52.196;5.660;2023-09-07T07:33:04;22.30;99.90
75321;DHT22;68337;52.196;5.660;2023-09-07T07:35:31;22.40;99.90
75321;DHT22;68337;52.196;5.660;2023-09-07T07:37:57;22.70;99.90
75321;DHT22;68337;52.196;5.660;2023-09-07T07:40:22;22.90;99.90
75321;DHT22;68337;52.196;5.660;2023-09-07T07:42:50;23.10;99.90
75321;DHT22;68337;52.196;5.660;2023-09-07T07:45:16;23.40;99.90
75321;DHT22;68337;52.196;5.660;2023-09-07T07:47:51;23.60;99.90
75321;DHT22;68337;52.196;5.660;2023-09-07T07:50:17;23.90;99.90
75321;DHT22;68337;52.196;5.660;2023-09-07T07:52:43;24.20;99.90
75321;DHT22;68337;52.196;5.660;2023-09-07T07:55:10;24.40;99.90
75321;DHT22;68337;52.196;5.660;2023-09-07T07:57:36;24.70;99.90
75321;DHT22;68337;52.196;5.660;2023-09-07T08:00:03;25.00;99.90
75321;DHT22;68337;52.196;5.660;2023-09-07T08:02:30;25.30;99.90
75321;DHT22;68337;52.196;5.660;2023-09-07T08:04:56;25.70;99.90
75321;DHT22;68337;52.196;5.660;2023-09-07T08:07:22;25.80;99.90
75321;DHT22;68337;52.196;5.660;2023-09-07T08:09:48;26.00;99.90
75321;DHT22;68337;52.196;5.660;2023-09-07T08:12:13;26.10;99.90
75321;DHT22;68337;52.196;5.660;2023-09-07T08:14:39;26.40;99.90
75321;DHT22;68337;52.196;5.660;2023-09-07T08:17:05;26.40;99.90
75321;DHT22;68337;52.196;5.660;2023-09-07T08:19:34;26.40;99.90
75321;DHT22;68337;52.196;5.660;2023-09-07T08:22:04;26.80;99.90
75321;DHT22;68337;52.196;5.660;2023-09-07T08:24:33;27.20;99.90
75321;DHT22;68337;52.196;5.660;2023-09-07T08:26:59;27.50;99.90
75321;DHT22;68337;52.196;5.660;2023-09-07T08:29:26;27.80;99.90
75321;DHT22;68337;52.196;5.660;2023-09-07T08:31:55;28.20;99.90
75321;DHT22;68337;52.196;5.660;2023-09-07T08:34:21;28.30;99.90
75321;DHT22;68337;52.196;5.660;2023-09-07T08:36:48;28.30;99.90
75321;DHT22;68337;52.196;5.660;2023-09-07T08:39:16;28.60;99.90
75321;DHT22;68337;52.196;5.660;2023-09-07T08:41:43;28.70;99.90
75321;DHT22;68337;52.196;5.660;2023-09-07T08:44:13;28.70;99.90
75321;DHT22;68337;52.196;5.660;2023-09-07T08:46:41;28.60;99.90
75321;DHT22;68337;52.196;5.660;2023-09-07T08:49:07;28.80;99.90
75321;DHT22;68337;52.196;5.660;2023-09-07T08:51:35;29.30;99.90
75321;DHT22;68337;52.196;5.660;2023-09-07T08:54:07;29.40;99.90
75321;DHT22;68337;52.196;5.660;2023-09-07T08:56:33;29.70;99.90
75321;DHT22;68337;52.196;5.660;2023-09-07T08:58:59;29.80;99.90
75321;DHT22;68337;52.196;5.660;2023-09-07T09:01:25;30.00;99.90
75321;DHT22;68337;52.196;5.660;2023-09-07T09:03:52;30.20;99.90
75321;DHT22;68337;52.196;5.660;2023-09-07T09:06:19;30.30;99.90
75321;DHT22;68337;52.196;5.660;2023-09-07T09:08:53;30.50;99.90
75321;DHT22;68337;52.196;5.660;2023-09-07T09:11:22;30.60;99.90
75321;DHT22;68337;52.196;5.660;2023-09-07T09:13:49;30.90;99.90
75321;DHT22;68337;52.196;5.660;2023-09-07T09:16:15;31.10;99.90
75321;DHT22;68337;52.196;5.660;2023-09-07T09:18:50;31.10;99.90
75321;DHT22;68337;52.196;5.660;2023-09-07T09:21:18;31.30;99.90
75321;DHT22;68337;52.196;5.660;2023-09-07T09:23:47;31.30;99.90
75321;DHT22;68337;52.196;5.660;2023-09-07T09:26:13;31.40;99.90
75321;DHT22;68337;52.196;5.660;2023-09-07T09:28:39;31.40;99.90
75321;DHT22;68337;52.196;5.660;2023-09-07T09:31:05;31.60;99.90
75321;DHT22;68337;52.196;5.660;2023-09-07T09:33:35;32.10;99.90
75321;DHT22;68337;52.196;5.660;2023-09-07T09:36:01;32.40;99.90
75321;DHT22;68337;52.196;5.660;2023-09-07T09:38:28;32.30;99.60
75321;DHT22;68337;52.196;5.660;2023-09-07T09:40:55;32.30;99.60
75321;DHT22;68337;52.196;5.660;2023-09-07T09:43:20;32.30;99.90
75321;DHT22;68337;52.196;5.660;2023-09-07T09:45:48;32.60;97.60
75321;DHT22;68337;52.196;5.660;2023-09-07T09:48:19;32.70;97.00
75321;DHT22;68337;52.196;5.660;2023-09-07T09:50:50;32.60;96.40
75321;DHT22;68337;52.196;5.660;2023-09-07T09:53:16;32.70;97.60
75321;DHT22;68337;52.196;5.660;2023-09-07T09:55:47;33.00;95.30
75321;DHT22;68337;52.196;5.660;2023-09-07T09:58:16;32.90;96.50
75321;DHT22;68337;52.196;5.660;2023-09-07T10:00:44;32.90;94.00
75321;DHT22;68337;52.196;5.660;2023-09-07T10:03:20;33.20;95.10
75321;DHT22;68337;52.196;5.660;2023-09-07T10:05:49;33.60;95.10
75321;DHT22;68337;52.196;5.660;2023-09-07T10:08:17;33.60;92.10
75321;DHT22;68337;52.196;5.660;2023-09-07T10:10:46;33.50;92.60
75321;DHT22;68337;52.196;5.660;2023-09-07T10:13:14;33.30;91.40
75321;DHT22;68337;52.196;5.660;2023-09-07T10:15:40;33.40;90.80
75321;DHT22;68337;52.196;5.660;2023-09-07T10:18:14;33.40;90.70
75321;DHT22;68337;52.196;5.660;2023-09-07T10:23:17;33.40;91.10
75321;DHT22;68337;52.196;5.660;2023-09-07T10:25:50;33.30;90.20
75321;DHT22;68337;52.196;5.660;2023-09-07T10:28:24;33.80;91.60
75321;DHT22;68337;52.196;5.660;2023-09-07T10:31:07;34.10;90.40
75321;DHT22;68337;52.196;5.660;2023-09-07T10:33:34;34.50;89.70
75321;DHT22;68337;52.196;5.660;2023-09-07T10:36:02;34.80;88.70
75321;DHT22;68337;52.196;5.660;2023-09-07T10:38:31;34.50;86.70
75321;DHT22;68337;52.196;5.660;2023-09-07T10:40:58;34.10;85.90
75321;DHT22;68337;52.196;5.660;2023-09-07T10:43:28;34.00;86.40
75321;DHT22;68337;52.196;5.660;2023-09-07T10:45:55;34.30;86.70
75321;DHT22;68337;52.196;5.660;2023-09-07T10:48:32;34.70;85.10
75321;DHT22;68337;52.196;5.660;2023-09-07T10:51:00;34.90;87.30
75321;DHT22;68337;52.196;5.660;2023-09-07T10:53:57;35.00;83.30
75321;DHT22;68337;52.196;5.660;2023-09-07T10:56:26;35.10;81.00
75321;DHT22;68337;52.196;5.660;2023-09-07T10:58:54;35.00;80.10
75321;DHT22;68337;52.196;5.660;2023-09-07T11:01:20;34.70;81.10
75321;DHT22;68337;52.196;5.660;2023-09-07T11:03:46;34.70;80.30
75321;DHT22;68337;52.196;5.660;2023-09-07T11:06:17;34.70;80.00
75321;DHT22;68337;52.196;5.660;2023-09-07T11:08:48;34.30;79.70
75321;DHT22;68337;52.196;5.660;2023-09-07T11:11:14;34.20;77.00
75321;DHT22;68337;52.196;5.660;2023-09-07T11:13:40;34.40;80.00
75321;DHT22;68337;52.196;5.660;2023-09-07T11:16:24;34.60;79.70
75321;DHT22;68337;52.196;5.660;2023-09-07T11:18:50;34.70;78.90
75321;DHT22;68337;52.196;5.660;2023-09-07T11:21:17;34.90;78.50
75321;DHT22;68337;52.196;5.660;2023-09-07T11:23:47;35.10;80.80
75321;DHT22;68337;52.196;5.660;2023-09-07T11:26:14;35.30;78.00
75321;DHT22;68337;52.196;5.660;2023-09-07T11:28:46;35.20;77.90
75321;DHT22;68337;52.196;5.660;2023-09-07T11:31:12;34.80;77.10
75321;DHT22;68337;52.196;5.660;2023-09-07T11:33:38;35.00;79.20
75321;DHT22;68337;52.196;5.660;2023-09-07T11:36:04;34.90;78.30
75321;DHT22;68337;52.196;5.660;2023-09-07T11:38:35;35.00;78.30
75321;DHT22;68337;52.196;5.660;2023-09-07T11:41:01;34.70;75.90
75321;DHT22;68337;52.196;5.660;2023-09-07T11:43:27;34.70;77.80
75321;DHT22;68337;52.196;5.660;2023-09-07T11:45:53;35.10;77.50
75321;DHT22;68337;52.196;5.660;2023-09-07T11:48:19;34.70;75.20
75321;DHT22;68337;52.196;5.660;2023-09-07T11:50:45;34.50;75.10
75321;DHT22;68337;52.196;5.660;2023-09-07T11:53:10;34.50;75.90
75321;DHT22;68337;52.196;5.660;2023-09-07T11:55:36;34.50;76.00
75321;DHT22;68337;52.196;5.660;2023-09-07T11:58:04;34.70;76.40
75321;DHT22;68337;52.196;5.660;2023-09-07T12:00:32;34.80;74.80
75321;DHT22;68337;52.196;5.660;2023-09-07T12:02:59;34.90;74.30
75321;DHT22;68337;52.196;5.660;2023-09-07T12:05:25;34.80;74.30
75321;DHT22;68337;52.196;5.660;2023-09-07T12:07:50;34.80;77.40
75321;DHT22;68337;52.196;5.660;2023-09-07T12:10:16;35.10;76.00
75321;DHT22;68337;52.196;5.660;2023-09-07T12:12:43;35.20;73.90
75321;DHT22;68337;52.196;5.660;2023-09-07T12:15:11;34.60;75.40
75321;DHT22;68337;52.196;5.660;2023-09-07T12:17:37;34.70;78.20
75321;DHT22;68337;52.196;5.660;2023-09-07T12:20:03;35.20;78.00
75321;DHT22;68337;52.196;5.660;2023-09-07T12:22:30;35.20;76.80
75321;DHT22;68337;52.196;5.660;2023-09-07T12:24:57;34.90;77.30
75321;DHT22;68337;52.196;5.660;2023-09-07T12:27:23;34.90;78.10
75321;DHT22;68337;52.196;5.660;2023-09-07T12:29:49;35.10;77.60
75321;DHT22;68337;52.196;5.660;2023-09-07T12:32:16;34.90;77.30
75321;DHT22;68337;52.196;5.660;2023-09-07T12:34:41;34.90;79.00
75321;DHT22;68337;52.196;5.660;2023-09-07T12:37:07;35.10;78.90
75321;DHT22;68337;52.196;5.660;2023-09-07T12:39:33;35.00;76.00
75321;DHT22;68337;52.196;5.660;2023-09-07T12:41:59;34.90;76.10
75321;DHT22;68337;52.196;5.660;2023-09-07T12:44:24;35.10;76.10
75321;DHT22;68337;52.196;5.660;2023-09-07T12:46:50;35.10;74.00
75321;DHT22;68337;52.196;5.660;2023-09-07T12:49:16;34.60;74.60
75321;DHT22;68337;52.196;5.660;2023-09-07T12:51:42;34.90;75.80
75321;DHT22;68337;52.196;5.660;2023-09-07T12:54:08;35.10;75.20
75321;DHT22;68337;52.196;5.660;2023-09-07T12:56:34;35.30;75.00
75321;DHT22;68337;52.196;5.660;2023-09-07T12:59:00;35.50;74.20
75321;DHT22;68337;52.196;5.660;2023-09-07T13:01:26;35.70;74.70
75321;DHT22;68337;52.196;5.660;2023-09-07T13:03:52;35.20;72.00
75321;DHT22;68337;52.196;5.660;2023-09-07T13:06:17;34.90;72.10
75321;DHT22;68337;52.196;5.660;2023-09-07T13:08:44;34.90;73.40
75321;DHT22;68337;52.196;5.660;2023-09-07T13:11:10;35.10;73.20
75321;DHT22;68337;52.196;5.660;2023-09-07T13:13:39;34.80;72.40
75321;DHT22;68337;52.196;5.660;2023-09-07T13:16:05;34.90;72.60
75321;DHT22;68337;52.196;5.660;2023-09-07T13:18:30;34.60;71.50
75321;DHT22;68337;52.196;5.660;2023-09-07T13:20:59;34.50;72.20
75321;DHT22;68337;52.196;5.660;2023-09-07T13:23:27;34.60;71.10
75321;DHT22;68337;52.196;5.660;2023-09-07T13:25:54;34.70;72.60
75321;DHT22;68337;52.196;5.660;2023-09-07T13:28:20;34.70;74.00
75321;DHT22;68337;52.196;5.660;2023-09-07T13:30:46;34.60;75.70
75321;DHT22;68337;52.196;5.660;2023-09-07T13:33:11;34.80;74.40
75321;DHT22;68337;52.196;5.660;2023-09-07T13:35:37;35.00;75.10
75321;DHT22;68337;52.196;5.660;2023-09-07T13:38:06;34.60;72.80
75321;DHT22;68337;52.196;5.660;2023-09-07T13:40:31;34.80;75.00
75321;DHT22;68337;52.196;5.660;2023-09-07T13:42:57;34.90;75.90
75321;DHT22;68337;52.196;5.660;2023-09-07T13:45:23;35.00;75.50
75321;DHT22;68337;52.196;5.660;2023-09-07T13:47:49;34.80;73.70
75321;DHT22;68337;52.196;5.660;2023-09-07T13:50:15;34.50;73.50
75321;DHT22;68337;52.196;5.660;2023-09-07T13:52:41;34.70;72.90
75321;DHT22;68337;52.196;5.660;2023-09-07T13:55:07;34.40;74.10
75321;DHT22;68337;52.196;5.660;2023-09-07T13:57:33;34.50;73.40
75321;DHT22;68337;52.196;5.660;2023-09-07T14:00:00;34.60;72.60
75321;DHT22;68337;52.196;5.660;2023-09-07T14:02:26;34.50;72.20
75321;DHT22;68337;52.196;5.660;2023-09-07T14:04:51;34.50;73.20
75321;DHT22;68337;52.196;5.660;2023-09-07T14:07:17;34.50;71.90
75321;DHT22;68337;52.196;5.660;2023-09-07T14:09:43;34.70;71.20
75321;DHT22;68337;52.196;5.660;2023-09-07T14:12:09;34.60;71.80
75321;DHT22;68337;52.196;5.660;2023-09-07T14:14:35;34.70;71.60
75321;DHT22;68337;52.196;5.660;2023-09-07T14:17:01;34.80;73.20
75321;DHT22;68337;52.196;5.660;2023-09-07T14:19:27;34.50;71.90
75321;DHT22;68337;52.196;5.660;2023-09-07T14:21:57;34.60;72.20
75321;DHT22;68337;52.196;5.660;2023-09-07T14:24:23;34.50;72.20
75321;DHT22;68337;52.196;5.660;2023-09-07T14:26:49;34.70;72.00
75321;DHT22;68337;52.196;5.660;2023-09-07T14:29:15;34.40;70.30
75321;DHT22;68337;52.196;5.660;2023-09-07T14:31:40;34.50;70.50
75321;DHT22;68337;52.196;5.660;2023-09-07T14:34:11;34.20;71.50
75321;DHT22;68337;52.196;5.660;2023-09-07T14:36:37;34.10;72.70
75321;DHT22;68337;52.196;5.660;2023-09-07T14:39:06;34.30;71.80
75321;DHT22;68337;52.196;5.660;2023-09-07T14:41:32;34.50;72.00
75321;DHT22;68337;52.196;5.660;2023-09-07T14:43:59;34.30;72.00
75321;DHT22;68337;52.196;5.660;2023-09-07T14:46:28;34.40;72.80
75321;DHT22;68337;52.196;5.660;2023-09-07T14:48:55;34.40;72.60
75321;DHT22;68337;52.196;5.660;2023-09-07T14:51:21;34.10;73.90
75321;DHT22;68337;52.196;5.660;2023-09-07T14:53:47;34.40;72.60
75321;DHT22;68337;52.196;5.660;2023-09-07T14:56:13;34.40;70.40
75321;DHT22;68337;52.196;5.660;2023-09-07T14:58:39;34.20;73.30
75321;DHT22;68337;52.196;5.660;2023-09-07T15:01:04;33.90;71.10
75321;DHT22;68337;52.196;5.660;2023-09-07T15:03:30;33.90;73.30
75321;DHT22;68337;52.196;5.660;2023-09-07T15:05:56;33.90;73.80
75321;DHT22;68337;52.196;5.660;2023-09-07T15:08:23;33.80;73.90
75321;DHT22;68337;52.196;5.660;2023-09-07T15:10:50;33.80;74.20
75321;DHT22;68337;52.196;5.660;2023-09-07T15:13:16;33.80;74.90
75321;DHT22;68337;52.196;5.660;2023-09-07T15:15:41;33.80;73.90
75321;DHT22;68337;52.196;5.660;2023-09-07T15:18:07;33.70;74.20
75321;DHT22;68337;52.196;5.660;2023-09-07T15:20:34;33.60;75.30
75321;DHT22;68337;52.196;5.660;2023-09-07T15:23:01;33.60;74.70
75321;DHT22;68337;52.196;5.660;2023-09-07T15:25:26;33.50;75.40
75321;DHT22;68337;52.196;5.660;2023-09-07T15:27:53;33.40;77.00
75321;DHT22;68337;52.196;5.660;2023-09-07T15:30:19;33.30;74.60
75321;DHT22;68337;52.196;5.660;2023-09-07T15:32:45;33.00;75.60